createdAt,value
2019-02-08T00:00:28.320Z,46.97
2019-02-08T00:02:56.828Z,46.47
2019-02-08T00:05:25.232Z,50.53
2019-02-08T00:07:53.819Z,36.00
2019-02-08T00:10:22.300Z,41.03
2019-02-08T00:12:51.886Z,39.77
2019-02-08T00:15:21.753Z,37.17
2019-02-08T00:17:50.277Z,40.00
2019-02-08T00:20:22.335Z,40.50
2019-02-08T00:22:50.775Z,37.83
2019-02-08T00:25:23.150Z,30.50
2019-02-08T00:27:51.566Z,37.60
2019-02-08T00:30:25.540Z,36.00
2019-02-08T00:32:54.020Z,41.13
2019-02-08T00:35:22.461Z,44.90
2019-02-08T00:37:50.911Z,37.33
2019-02-08T00:40:20.835Z,46.60
2019-02-08T00:42:49.339Z,59.70
2019-02-08T00:45:20.495Z,53.47
2019-02-08T00:47:48.890Z,54.73
2019-02-08T00:50:30.534Z,51.40
2019-02-08T00:52:58.922Z,49.37
2019-02-08T00:55:27.322Z,46.87
2019-02-08T00:57:56.142Z,54.50
2019-02-08T01:00:24.618Z,48.60
2019-02-08T01:02:54.146Z,53.13
2019-02-08T01:05:24.891Z,57.77
2019-02-08T01:07:53.359Z,53.17
2019-02-08T01:10:27.307Z,55.27
2019-02-08T01:12:56.235Z,55.53
2019-02-08T01:15:26.749Z,49.23
2019-02-08T01:17:55.243Z,55.50
2019-02-08T01:20:25.042Z,60.03
2019-02-08T01:22:53.960Z,53.03
2019-02-08T01:25:30.670Z,50.73
2019-02-08T01:27:59.431Z,49.70
2019-02-08T01:30:33.162Z,55.27
2019-02-08T01:33:01.599Z,56.50
2019-02-08T01:35:29.992Z,59.33
2019-02-08T01:37:59.934Z,55.33
2019-02-08T01:40:36.840Z,55.40
2019-02-08T01:43:06.476Z,42.00
2019-02-08T01:45:34.867Z,48.47
2019-02-08T01:48:03.314Z,55.57
2019-02-08T01:50:31.795Z,56.67
2019-02-08T01:53:00.433Z,61.07
2019-02-08T01:55:29.130Z,56.93
2019-02-08T01:57:57.530Z,60.10
2019-02-08T02:00:33.374Z,50.43
2019-02-08T02:03:02.408Z,47.60
2019-02-08T02:05:30.803Z,46.40
2019-02-08T02:07:59.236Z,43.27
2019-02-08T02:10:33.042Z,35.93
2019-02-08T02:13:01.604Z,37.37
2019-02-08T02:15:30.041Z,38.93
2019-02-08T02:17:59.554Z,49.97
2019-02-08T02:20:39.341Z,41.00
2019-02-08T02:23:09.035Z,35.03
2019-02-08T02:25:37.436Z,34.30
2019-02-08T02:28:06.390Z,31.03
2019-02-08T02:30:36.512Z,33.60
2019-02-08T02:33:10.520Z,35.20
2019-02-08T02:35:39.066Z,28.33
2019-02-08T02:38:07.544Z,24.90
2019-02-08T02:40:35.987Z,26.57
2019-02-08T02:43:04.523Z,26.23
2019-02-08T02:45:34.951Z,35.43
2019-02-08T02:48:04.215Z,40.20
2019-02-08T02:50:32.736Z,46.90
2019-02-08T02:53:01.230Z,50.20
2019-02-08T02:55:30.815Z,61.93
2019-02-08T02:57:59.304Z,65.03
2019-02-08T03:00:33.926Z,77.73
2019-02-08T03:03:02.634Z,78.00
2019-02-08T03:05:31.015Z,66.80
2019-02-08T03:07:59.451Z,54.57
2019-02-08T03:10:27.850Z,42.90
2019-02-08T03:12:56.349Z,38.07
2019-02-08T03:15:25.394Z,33.97
2019-02-08T03:17:53.792Z,41.60
2019-02-08T03:20:24.274Z,42.60
2019-02-08T03:22:52.841Z,42.97
2019-02-08T03:25:25.812Z,40.53
2019-02-08T03:27:54.270Z,34.60
2019-02-08T03:30:34.183Z,49.10
2019-02-08T03:33:02.848Z,47.60
2019-02-08T03:35:31.239Z,45.30
2019-02-08T03:37:59.670Z,47.37
2019-02-08T03:40:31.847Z,43.73
2019-02-08T03:43:00.239Z,43.10
2019-02-08T03:45:30.312Z,35.20
2019-02-08T03:47:59.018Z,32.93
2019-02-08T03:50:27.602Z,32.93
2019-02-08T03:52:56.088Z,29.83
2019-02-08T03:55:25.200Z,35.40
2019-02-08T03:57:53.850Z,28.87
2019-02-08T04:00:32.037Z,31.27
2019-02-08T04:03:00.422Z,30.40
2019-02-08T04:05:28.911Z,35.23
2019-02-08T04:07:57.340Z,32.47
2019-02-08T04:10:25.777Z,37.77
2019-02-08T04:12:54.167Z,31.47
2019-02-08T04:15:25.984Z,34.43
2019-02-08T04:17:54.392Z,33.03
2019-02-08T04:20:28.864Z,35.40
2019-02-08T04:22:58.572Z,34.23
2019-02-08T04:25:26.965Z,30.33
2019-02-08T04:27:55.418Z,32.07
2019-02-08T04:30:28.891Z,31.03
2019-02-08T04:32:58.071Z,24.73
2019-02-08T04:35:26.460Z,25.83
2019-02-08T04:37:54.911Z,24.83
2019-02-08T04:40:24.968Z,24.53
2019-02-08T04:42:53.496Z,30.43
2019-02-08T04:45:22.421Z,30.27
2019-02-08T04:47:51.123Z,34.67
2019-02-08T04:50:22.963Z,92.40
2019-02-08T04:52:51.419Z,76.67
2019-02-08T04:55:19.885Z,58.57
2019-02-08T04:57:48.280Z,60.73
2019-02-08T05:00:28.504Z,54.80
2019-02-08T05:02:57.133Z,61.53
2019-02-08T05:05:25.525Z,62.43
2019-02-08T05:07:54.129Z,58.33
2019-02-08T05:10:33.269Z,52.23
2019-02-08T05:13:01.698Z,50.93
2019-02-08T05:15:30.356Z,59.20
2019-02-08T05:17:58.738Z,72.23
2019-02-08T05:20:32.022Z,66.33
2019-02-08T05:23:01.501Z,69.20
2019-02-08T05:25:30.559Z,80.57
2019-02-08T05:27:59.236Z,75.03
2019-02-08T05:30:30.260Z,67.97
2019-02-08T05:32:59.063Z,76.97
2019-02-08T05:35:27.679Z,85.77
2019-02-08T05:37:56.090Z,88.77
2019-02-08T05:40:24.820Z,107.63
2019-02-08T05:42:53.378Z,111.30
2019-02-08T05:45:24.443Z,106.20
2019-02-08T05:47:52.851Z,98.60
2019-02-08T05:50:27.048Z,96.17
2019-02-08T05:52:55.733Z,98.43
2019-02-08T05:55:26.282Z,103.20
2019-02-08T05:57:54.980Z,97.30
2019-02-08T06:00:48.031Z,103.43
2019-02-08T06:03:16.472Z,97.83
2019-02-08T06:05:45.209Z,93.40
2019-02-08T06:08:13.674Z,78.43
2019-02-08T06:10:42.099Z,70.30
2019-02-08T06:13:10.878Z,66.37
2019-02-08T06:15:39.544Z,63.93
2019-02-08T06:18:09.327Z,72.40
2019-02-08T06:20:37.798Z,73.83
2019-02-08T06:23:07.469Z,67.20
2019-02-08T06:25:36.372Z,74.43
2019-02-08T06:28:05.613Z,72.93
2019-02-08T06:30:34.015Z,73.07
2019-02-08T06:33:02.483Z,81.07
2019-02-08T06:35:31.262Z,80.80
2019-02-08T06:37:59.664Z,75.60
2019-02-08T06:40:37.079Z,62.00
2019-02-08T06:43:05.967Z,62.47
2019-02-08T06:45:34.360Z,62.43
2019-02-08T06:48:03.194Z,68.13
2019-02-08T06:50:31.668Z,52.03
2019-02-08T06:53:00.118Z,49.70
2019-02-08T06:55:28.547Z,55.63
2019-02-08T06:58:01.514Z,53.33
2019-02-08T07:00:31.539Z,53.23
2019-02-08T07:03:04.432Z,57.23
2019-02-08T07:05:50.695Z,60.40
2019-02-08T07:08:27.085Z,55.20
2019-02-08T07:11:03.760Z,51.90
2019-02-08T07:13:50.309Z,45.83
2019-02-08T07:16:29.209Z,56.80
2019-02-08T07:19:08.538Z,65.70
2019-02-08T07:21:47.651Z,57.60
2019-02-08T07:24:18.684Z,41.77
2019-02-08T07:27:01.081Z,32.13
2019-02-08T07:29:43.280Z,26.27
2019-02-08T07:32:25.686Z,30.73
2019-02-08T07:34:56.033Z,28.73
2019-02-08T07:37:34.887Z,25.17
2019-02-08T07:40:22.190Z,26.83
2019-02-08T07:42:58.127Z,26.27
2019-02-08T07:45:44.559Z,25.93
2019-02-08T07:48:20.684Z,25.90
2019-02-08T07:50:56.529Z,26.73
2019-02-08T07:53:26.744Z,27.27
2019-02-08T07:56:13.310Z,32.57
2019-02-08T07:58:55.652Z,27.50
2019-02-08T08:01:40.798Z,25.90
2019-02-08T08:04:20.736Z,28.30
2019-02-08T08:06:53.491Z,28.60
2019-02-08T08:09:26.640Z,29.30
2019-02-08T08:11:57.066Z,29.57
2019-02-08T08:14:36.432Z,26.33
2019-02-08T08:17:09.384Z,30.53
2019-02-08T08:19:56.446Z,30.13
2019-02-08T08:22:26.506Z,32.30
2019-02-08T08:24:57.389Z,30.53
2019-02-08T08:27:27.689Z,26.80
2019-02-08T08:30:03.759Z,28.80
2019-02-08T08:32:33.999Z,28.17
2019-02-08T08:35:29.251Z,27.13
2019-02-08T08:38:23.101Z,26.83
2019-02-08T08:41:00.647Z,32.87
2019-02-08T08:43:47.060Z,35.13
2019-02-08T08:46:24.583Z,35.87
2019-02-08T08:49:21.689Z,31.53
2019-02-08T08:52:05.417Z,36.80
2019-02-08T08:54:54.905Z,34.50
2019-02-08T08:57:26.871Z,35.40
2019-02-08T09:00:14.972Z,38.40
2019-02-08T09:02:55.444Z,44.37
2019-02-08T09:05:52.772Z,45.43
2019-02-08T09:08:42.427Z,48.20
2019-02-08T09:11:29.165Z,43.03
2019-02-08T09:14:09.627Z,40.53
2019-02-08T09:16:59.156Z,34.93
2019-02-08T09:19:39.954Z,33.93
2019-02-08T09:22:17.814Z,36.23
2019-02-08T09:25:06.107Z,35.20
2019-02-08T09:27:59.373Z,34.23
2019-02-08T09:30:49.480Z,38.30
2019-02-08T09:33:37.446Z,39.50
2019-02-08T09:36:29.051Z,41.43
2019-02-08T09:39:35.584Z,83.93
2019-02-08T09:42:25.536Z,68.40
2019-02-08T09:45:03.212Z,40.53
2019-02-08T09:47:43.955Z,40.30
2019-02-08T09:50:18.162Z,37.37
2019-02-08T09:53:15.414Z,37.30
2019-02-08T09:55:59.933Z,45.10
2019-02-08T09:58:40.858Z,60.37
2019-02-08T10:01:34.871Z,64.13
2019-02-08T10:04:23.618Z,48.43
2019-02-08T10:07:04.278Z,45.63
2019-02-08T10:09:55.567Z,42.23
2019-02-08T10:13:00.459Z,33.60
2019-02-08T10:15:32.359Z,33.10
2019-02-08T10:18:32.888Z,31.13
2019-02-08T10:21:23.939Z,31.50
2019-02-08T10:24:01.703Z,34.43
2019-02-08T10:27:10.121Z,44.67
2019-02-08T10:30:16.119Z,35.30
2019-02-08T10:33:09.172Z,37.67
2019-02-08T10:35:40.986Z,32.57
2019-02-08T10:38:18.126Z,37.60
2019-02-08T10:41:04.908Z,35.90
2019-02-08T10:44:11.521Z,37.40
2019-02-08T10:46:58.198Z,37.97
2019-02-08T10:49:44.423Z,38.80
2019-02-08T10:52:49.610Z,39.77
2019-02-08T10:55:39.644Z,50.90
2019-02-08T10:58:26.418Z,41.00
2019-02-08T11:01:19.252Z,40.73
2019-02-08T11:04:02.831Z,45.30
2019-02-08T11:07:07.614Z,36.83
2019-02-08T11:10:12.558Z,34.97
2019-02-08T11:12:59.406Z,34.37
2019-02-08T11:15:46.025Z,38.07
2019-02-08T11:18:37.163Z,37.10
2019-02-08T11:21:05.560Z,36.90
2019-02-08T11:23:34.686Z,36.73
2019-02-08T11:26:03.304Z,35.00
2019-02-08T11:28:32.339Z,34.40
2019-02-08T11:31:01.774Z,39.07
2019-02-08T11:33:30.254Z,31.00
2019-02-08T11:35:59.200Z,19.50
2019-02-08T11:38:27.952Z,21.50
2019-02-08T11:40:56.571Z,18.50
2019-02-08T11:43:25.145Z,17.17
2019-02-08T11:45:54.177Z,16.60
2019-02-08T11:48:23.055Z,16.90
2019-02-08T11:50:51.455Z,20.37
2019-02-08T11:53:20.184Z,18.37
2019-02-08T11:55:48.682Z,19.50
2019-02-08T11:58:17.562Z,17.80
2019-02-08T12:00:47.781Z,16.53
2019-02-08T12:03:16.498Z,18.27
2019-02-08T12:05:45.261Z,18.17
2019-02-08T12:08:13.926Z,17.53
2019-02-08T12:10:42.358Z,15.40
2019-02-08T12:13:11.083Z,20.50
2019-02-08T12:15:39.777Z,20.73
2019-02-08T12:18:08.342Z,20.13
2019-02-08T12:20:36.734Z,17.63
2019-02-08T12:23:06.986Z,17.17
2019-02-08T12:25:36.465Z,19.67
2019-02-08T12:28:04.914Z,16.80
2019-02-08T12:30:36.468Z,21.60
2019-02-08T12:33:06.881Z,18.70
2019-02-08T12:35:35.346Z,20.40
2019-02-08T12:38:04.115Z,18.83
2019-02-08T12:40:32.714Z,22.33
2019-02-08T12:43:01.200Z,21.53
2019-02-08T12:45:29.690Z,21.00
2019-02-08T12:47:58.297Z,22.10
2019-02-08T12:50:29.158Z,21.07
2019-02-08T12:52:57.790Z,24.97
2019-02-08T12:55:26.247Z,23.80
2019-02-08T12:57:55.700Z,31.03
2019-02-08T13:00:27.587Z,27.70
2019-02-08T13:03:01.259Z,22.87
2019-02-08T13:05:31.073Z,27.03
2019-02-08T13:08:00.354Z,24.50
2019-02-08T13:10:38.865Z,23.13
2019-02-08T13:13:11.696Z,26.90
2019-02-08T13:15:40.848Z,24.57
2019-02-08T13:18:09.252Z,24.67
2019-02-08T13:20:37.904Z,22.20
2019-02-08T13:23:07.155Z,21.70
2019-02-08T13:25:35.540Z,20.33
2019-02-08T13:28:04.202Z,21.53
2019-02-08T13:30:36.635Z,21.03
2019-02-08T13:33:05.098Z,21.60
2019-02-08T13:35:35.072Z,21.43
2019-02-08T13:38:03.492Z,18.40
2019-02-08T13:40:34.679Z,23.97
2019-02-08T13:43:03.298Z,25.63
2019-02-08T13:45:31.912Z,21.00
2019-02-08T13:48:00.745Z,17.00
2019-02-08T13:50:33.851Z,17.07
2019-02-08T13:53:02.355Z,20.47
2019-02-08T13:55:30.825Z,20.80
2019-02-08T13:58:00.044Z,20.27
2019-02-08T14:00:31.375Z,22.43
2019-02-08T14:02:59.777Z,19.23
2019-02-08T14:05:28.771Z,18.17
2019-02-08T14:07:57.656Z,18.13
2019-02-08T14:10:26.189Z,19.70
2019-02-08T14:12:54.967Z,19.83
2019-02-08T14:15:25.062Z,20.87
2019-02-08T14:17:53.488Z,22.03
2019-02-08T14:20:24.386Z,20.00
2019-02-08T14:22:55.419Z,22.03
2019-02-08T14:25:23.812Z,19.93
2019-02-08T14:27:52.668Z,20.63
2019-02-08T14:30:27.055Z,23.40
2019-02-08T14:32:56.017Z,24.47
2019-02-08T14:35:24.591Z,21.27
2019-02-08T14:37:54.553Z,24.53
2019-02-08T14:40:24.546Z,23.27
2019-02-08T14:42:53.420Z,24.67
2019-02-08T14:45:21.879Z,25.00
2019-02-08T14:47:50.381Z,25.60
2019-02-08T14:50:21.513Z,26.63
2019-02-08T14:52:50.199Z,23.37
2019-02-08T14:55:19.711Z,25.13
2019-02-08T14:57:48.634Z,27.47
2019-02-08T15:00:22.647Z,26.80
2019-02-08T15:02:51.040Z,26.47
2019-02-08T15:05:22.128Z,28.20
2019-02-08T15:07:50.868Z,30.83
2019-02-08T15:10:24.888Z,30.97
2019-02-08T15:12:53.769Z,31.40
2019-02-08T15:15:22.528Z,28.60
2019-02-08T15:17:51.345Z,27.77
2019-02-08T15:20:28.343Z,31.03
2019-02-08T15:22:56.950Z,53.57
2019-02-08T15:25:25.440Z,71.87
2019-02-08T15:27:54.074Z,55.10
2019-02-08T15:30:25.426Z,51.97
2019-02-08T15:32:54.512Z,124.70
2019-02-08T15:35:25.298Z,120.57
2019-02-08T15:37:53.855Z,140.23
2019-02-08T15:40:29.538Z,153.53
2019-02-08T15:42:58.228Z,141.60
2019-02-08T15:45:26.909Z,140.20
2019-02-08T15:47:55.731Z,148.23
2019-02-08T15:50:24.345Z,140.17
2019-02-08T15:52:54.449Z,158.03
2019-02-08T15:55:26.180Z,176.70
2019-02-08T15:57:54.832Z,202.00
2019-02-08T16:00:28.519Z,195.67
2019-02-08T16:02:57.339Z,186.00
2019-02-08T16:05:25.844Z,202.60
2019-02-08T16:07:54.212Z,198.07
2019-02-08T16:10:24.377Z,201.20
2019-02-08T16:12:52.986Z,200.63
2019-02-08T16:15:29.596Z,209.27
2019-02-08T16:17:58.668Z,219.07
2019-02-08T16:20:29.208Z,210.37
2019-02-08T16:22:59.097Z,219.63
2019-02-08T16:25:32.314Z,213.23
2019-02-08T16:28:01.064Z,184.67
2019-02-08T16:30:36.059Z,186.07
2019-02-08T16:33:07.033Z,227.13
2019-02-08T16:35:35.511Z,241.80
2019-02-08T16:38:04.408Z,227.73
2019-02-08T16:40:32.880Z,252.27
2019-02-08T16:43:02.376Z,226.83
2019-02-08T16:45:40.600Z,194.10
2019-02-08T16:48:14.888Z,225.97
2019-02-08T16:50:44.152Z,263.10
2019-02-08T16:53:14.123Z,264.50
2019-02-08T16:55:42.505Z,255.40
2019-02-08T16:58:12.166Z,268.50
2019-02-08T17:00:42.206Z,276.63
2019-02-08T17:03:14.556Z,290.67
2019-02-08T17:05:43.144Z,282.63
2019-02-08T17:08:12.119Z,272.23
2019-02-08T17:10:40.722Z,274.97
2019-02-08T17:13:09.572Z,279.00
2019-02-08T17:15:38.187Z,254.87
2019-02-08T17:18:07.545Z,268.43
2019-02-08T17:20:38.335Z,238.00
2019-02-08T17:23:07.143Z,220.43
2019-02-08T17:25:35.718Z,208.00
2019-02-08T17:28:05.249Z,200.90
2019-02-08T17:30:33.974Z,234.50
2019-02-08T17:33:02.445Z,319.20
2019-02-08T17:35:31.239Z,339.13
2019-02-08T17:38:00.007Z,297.53
2019-02-08T17:40:34.057Z,298.80
2019-02-08T17:43:02.711Z,282.53
2019-02-08T17:45:32.164Z,191.60
2019-02-08T17:48:01.275Z,190.10
2019-02-08T17:50:29.815Z,219.20
2019-02-08T17:52:58.539Z,257.83
2019-02-08T17:55:28.969Z,244.90
2019-02-08T17:58:03.385Z,236.60
2019-02-08T18:00:47.609Z,205.53
2019-02-08T18:03:16.204Z,269.13
2019-02-08T18:05:44.839Z,244.10
2019-02-08T18:08:13.727Z,250.40
2019-02-08T18:10:42.209Z,170.07
2019-02-08T18:13:10.615Z,203.23
2019-02-08T18:15:39.205Z,370.80
2019-02-08T18:18:10.368Z,480.13
2019-02-08T18:20:48.474Z,382.57
2019-02-08T18:23:16.978Z,356.40
2019-02-08T18:25:45.379Z,484.37
2019-02-08T18:28:14.397Z,242.00
2019-02-08T18:30:42.846Z,262.53
2019-02-08T18:33:11.265Z,323.27
2019-02-08T18:35:39.909Z,290.07
2019-02-08T18:38:08.674Z,285.73
2019-02-08T18:40:37.423Z,262.57
2019-02-08T18:43:06.022Z,249.07
2019-02-08T18:45:37.094Z,265.47
2019-02-08T18:48:07.168Z,419.37
2019-02-08T18:50:47.528Z,431.43
2019-02-08T18:53:16.245Z,454.67
2019-02-08T18:55:45.060Z,472.43
2019-02-08T18:58:18.723Z,573.20
2019-02-08T19:00:49.768Z,425.20
2019-02-08T19:03:18.586Z,308.37
2019-02-08T19:05:47.117Z,262.73
2019-02-08T19:08:16.362Z,225.30
2019-02-08T19:10:45.150Z,232.43
2019-02-08T19:13:14.141Z,248.43
2019-02-08T19:15:42.348Z,266.90
2019-02-08T19:18:11.234Z,1466.93
2019-02-08T19:20:39.979Z,1463.13
2019-02-08T19:23:08.884Z,992.53
2019-02-08T19:25:40.733Z,788.60
2019-02-08T19:28:10.375Z,838.07
2019-02-08T19:30:40.816Z,604.90
2019-02-08T19:33:09.451Z,469.30
2019-02-08T19:35:38.220Z,380.20
2019-02-08T19:38:08.421Z,353.80
2019-02-08T19:40:45.404Z,361.20
2019-02-08T19:43:14.104Z,488.37
2019-02-08T19:45:42.794Z,341.47
2019-02-08T19:48:12.442Z,326.73
2019-02-08T19:50:45.732Z,321.57
2019-02-08T19:53:14.613Z,496.47
2019-02-08T19:55:44.140Z,399.57
2019-02-08T19:58:12.673Z,472.27
2019-02-08T20:00:45.871Z,428.60
2019-02-08T20:03:14.634Z,358.30
2019-02-08T20:05:43.965Z,304.50
2019-02-08T20:08:13.864Z,319.50
2019-02-08T20:10:45.421Z,292.37
2019-02-08T20:13:14.316Z,283.30
2019-02-08T20:15:42.766Z,276.33
2019-02-08T20:18:11.790Z,291.90
2019-02-08T20:20:40.575Z,261.70
2019-02-08T20:23:09.262Z,211.83
2019-02-08T20:25:37.938Z,251.43
2019-02-08T20:28:06.990Z,309.47
2019-02-08T20:30:35.937Z,333.50
2019-02-08T20:33:04.883Z,335.27
2019-02-08T20:35:33.503Z,366.53
2019-02-08T20:38:02.122Z,356.13
2019-02-08T20:40:35.723Z,304.30
2019-02-08T20:43:04.568Z,319.60
2019-02-08T20:45:34.536Z,331.83
2019-02-08T20:48:06.309Z,351.97
2019-02-08T20:50:34.736Z,323.60
2019-02-08T20:53:04.657Z,358.10
2019-02-08T20:55:33.506Z,347.90
2019-02-08T20:58:02.073Z,342.37
2019-02-08T21:00:36.724Z,347.17
2019-02-08T21:03:13.097Z,321.47
2019-02-08T21:05:42.368Z,342.17
2019-02-08T21:08:12.372Z,337.67
2019-02-08T21:10:41.000Z,349.13
2019-02-08T21:13:10.054Z,361.80
2019-02-08T21:15:38.614Z,333.00
2019-02-08T21:18:07.900Z,319.07
2019-02-08T21:20:36.465Z,343.60
2019-02-08T21:23:05.404Z,350.47
2019-02-08T21:25:35.871Z,319.80
2019-02-08T21:28:05.041Z,288.87
2019-02-08T21:30:33.443Z,280.67
2019-02-08T21:33:01.978Z,269.17
2019-02-08T21:35:30.476Z,279.33
2019-02-08T21:37:58.906Z,265.13
2019-02-08T21:40:31.070Z,277.07
2019-02-08T21:42:59.732Z,272.80
2019-02-08T21:45:30.877Z,289.67
2019-02-08T21:47:59.484Z,268.73
2019-02-08T21:50:28.148Z,271.37
2019-02-08T21:52:56.725Z,250.90
2019-02-08T21:55:27.902Z,259.20
2019-02-08T21:57:56.426Z,291.77
2019-02-08T22:00:30.543Z,313.67
2019-02-08T22:02:59.893Z,283.43
2019-02-08T22:05:30.805Z,250.93
2019-02-08T22:07:59.273Z,218.67
2019-02-08T22:10:28.579Z,221.63
2019-02-08T22:12:57.263Z,222.07
2019-02-08T22:15:31.762Z,264.87
2019-02-08T22:18:00.469Z,255.63
2019-02-08T22:20:29.009Z,269.17
2019-02-08T22:22:57.541Z,297.47
2019-02-08T22:25:28.737Z,300.97
2019-02-08T22:27:57.358Z,357.00
2019-02-08T22:30:27.029Z,438.80
2019-02-08T22:33:00.819Z,420.07
2019-02-08T22:35:29.425Z,410.20
2019-02-08T22:37:58.449Z,378.93
2019-02-08T22:40:27.116Z,269.20
2019-02-08T22:42:55.733Z,210.90
2019-02-08T22:45:41.689Z,201.07
2019-02-08T22:48:10.295Z,220.73
2019-02-08T22:50:38.942Z,197.07
2019-02-08T22:53:08.359Z,183.97
2019-02-08T22:55:37.274Z,182.20
2019-02-08T22:58:08.520Z,225.63
2019-02-08T23:00:41.053Z,265.17
2019-02-08T23:03:11.803Z,266.70
2019-02-08T23:05:45.278Z,225.40
2019-02-08T23:08:11.041Z,247.53
2019-02-08T23:13:34.487Z,257.43
2019-02-08T23:16:02.976Z,256.13
2019-02-08T23:18:31.858Z,241.00
2019-02-08T23:21:00.880Z,240.83
2019-02-08T23:23:29.934Z,213.97
2019-02-08T23:25:58.376Z,182.07
2019-02-08T23:28:27.066Z,186.13
2019-02-08T23:30:55.835Z,175.00
2019-02-08T23:33:24.388Z,176.50
2019-02-08T23:35:52.959Z,182.73
2019-02-08T23:38:21.614Z,187.07
2019-02-08T23:40:50.187Z,166.87
2019-02-08T23:43:18.813Z,171.27
2019-02-08T23:45:47.522Z,188.97
2019-02-08T23:48:15.996Z,175.33
2019-02-08T23:50:44.611Z,180.50
2019-02-08T23:53:13.358Z,169.30
2019-02-08T23:55:41.755Z,181.50
2019-02-08T23:58:10.200Z,186.07
